createdAt,value
2022-10-20T00:01:07.734Z,1.40
2022-10-20T00:03:35.071Z,1.43
2022-10-20T00:06:09.912Z,1.55
2022-10-20T00:08:37.511Z,1.20
2022-10-20T00:11:04.916Z,1.63
2022-10-20T00:13:32.512Z,1.60
2022-10-20T00:16:00.372Z,1.53
2022-10-20T00:18:28.466Z,1.80
2022-10-20T00:20:56.308Z,1.30
2022-10-20T00:23:23.991Z,1.47
2022-10-20T00:26:01.573Z,1.70
2022-10-20T00:28:28.866Z,1.60
2022-10-20T00:30:56.805Z,1.53
2022-10-20T00:33:24.586Z,1.30
2022-10-20T00:35:51.840Z,1.50
2022-10-20T00:40:51.457Z,1.37
2022-10-20T00:43:18.948Z,1.20
2022-10-20T00:45:50.918Z,1.33
2022-10-20T00:48:20.734Z,1.70
2022-10-20T00:50:50.722Z,2.20
2022-10-20T00:53:18.449Z,1.40
2022-10-20T00:55:48.638Z,1.60
2022-10-20T00:58:16.198Z,1.70
2022-10-20T01:00:44.284Z,1.40
2022-10-20T01:03:15.444Z,1.57
2022-10-20T01:05:42.894Z,1.83
2022-10-20T01:08:10.185Z,1.60
2022-10-20T01:10:41.532Z,1.63
2022-10-20T01:13:15.263Z,1.37
2022-10-20T01:15:49.138Z,1.40
2022-10-20T01:18:22.672Z,2.33
2022-10-20T01:21:06.053Z,1.63
2022-10-20T01:23:51.761Z,1.57
2022-10-20T01:26:37.417Z,1.50
2022-10-20T01:29:04.679Z,1.63
2022-10-20T01:31:54.144Z,1.17
2022-10-20T01:34:27.541Z,1.10
2022-10-20T01:37:01.354Z,1.33
2022-10-20T01:39:34.589Z,1.20
2022-10-20T01:42:06.569Z,1.63
2022-10-20T01:44:36.414Z,1.50
2022-10-20T01:47:04.591Z,1.50
2022-10-20T01:49:31.905Z,1.30
2022-10-20T01:51:59.275Z,1.23
2022-10-20T01:54:28.029Z,1.20
2022-10-20T01:57:14.018Z,1.50
2022-10-20T01:59:44.025Z,1.40
2022-10-20T02:02:11.381Z,2.53
2022-10-20T02:04:52.393Z,1.37
2022-10-20T02:07:30.161Z,1.20
2022-10-20T02:10:10.760Z,1.70
2022-10-20T02:12:39.830Z,1.90
2022-10-20T02:15:07.826Z,1.27
2022-10-20T02:17:35.857Z,1.53
2022-10-20T02:20:06.001Z,1.93
2022-10-20T02:22:34.046Z,1.50
2022-10-20T02:25:01.868Z,1.70
2022-10-20T02:27:31.223Z,1.23
2022-10-20T02:30:03.428Z,1.73
2022-10-20T02:32:32.486Z,1.20
2022-10-20T02:35:03.581Z,1.40
2022-10-20T02:37:34.229Z,1.30
2022-10-20T02:40:01.869Z,1.57
2022-10-20T02:42:29.140Z,1.30
2022-10-20T02:44:56.472Z,1.40
2022-10-20T02:47:23.862Z,1.50
2022-10-20T02:49:51.201Z,1.60
2022-10-20T02:52:18.481Z,1.50
2022-10-20T02:54:45.781Z,1.30
2022-10-20T02:57:13.129Z,1.60
2022-10-20T02:59:40.474Z,1.60
2022-10-20T03:02:07.799Z,1.70
2022-10-20T03:04:35.173Z,1.50
2022-10-20T03:07:02.547Z,1.40
2022-10-20T03:09:29.967Z,1.50
2022-10-20T03:11:57.513Z,1.40
2022-10-20T03:14:24.892Z,1.50
2022-10-20T03:16:52.291Z,1.20
2022-10-20T03:19:19.686Z,2.20
2022-10-20T03:21:48.868Z,1.30
2022-10-20T03:24:16.554Z,1.90
2022-10-20T03:26:43.892Z,1.27
2022-10-20T03:29:11.203Z,1.60
2022-10-20T03:31:38.532Z,1.70
2022-10-20T03:34:05.810Z,1.20
2022-10-20T03:36:33.166Z,1.50
2022-10-20T03:39:00.498Z,1.43
2022-10-20T03:41:27.786Z,1.30
2022-10-20T03:43:55.113Z,1.53
2022-10-20T03:46:22.494Z,1.30
2022-10-20T03:48:49.894Z,1.47
2022-10-20T03:51:17.355Z,1.40
2022-10-20T03:53:44.664Z,1.50
2022-10-20T03:56:13.809Z,1.50
2022-10-20T03:58:41.233Z,1.43
2022-10-20T04:01:09.492Z,1.00
2022-10-20T04:03:36.815Z,2.03
2022-10-20T04:06:07.050Z,1.70
2022-10-20T04:08:34.584Z,1.97
2022-10-20T04:11:01.926Z,1.63
2022-10-20T04:13:29.195Z,1.47
2022-10-20T04:15:56.572Z,1.50
2022-10-20T04:18:23.952Z,1.90
2022-10-20T04:20:51.317Z,1.70
2022-10-20T04:23:18.693Z,1.60
2022-10-20T04:25:48.515Z,1.57
2022-10-20T04:28:16.636Z,1.53
2022-10-20T04:30:44.439Z,1.77
2022-10-20T04:33:11.946Z,1.90
2022-10-20T04:35:39.368Z,1.50
2022-10-20T04:38:06.980Z,2.17
2022-10-20T04:40:34.557Z,2.00
2022-10-20T04:43:02.049Z,2.07
2022-10-20T04:45:29.688Z,2.37
2022-10-20T04:47:57.013Z,2.20
2022-10-20T04:50:24.443Z,1.67
2022-10-20T04:52:51.828Z,1.57
2022-10-20T04:55:20.361Z,1.60
2022-10-20T04:57:47.673Z,2.50
2022-10-20T05:00:15.359Z,2.03
2022-10-20T05:02:42.794Z,1.60
2022-10-20T05:05:10.278Z,1.60
2022-10-20T05:07:37.999Z,1.63
2022-10-20T05:10:08.886Z,1.40
2022-10-20T05:12:36.533Z,1.50
2022-10-20T05:15:04.192Z,1.33
2022-10-20T05:17:31.694Z,1.80
2022-10-20T05:19:59.114Z,1.63
2022-10-20T05:22:26.440Z,1.47
2022-10-20T05:24:53.733Z,2.43
2022-10-20T05:27:21.053Z,1.90
2022-10-20T05:29:48.442Z,1.90
2022-10-20T05:32:16.013Z,1.90
2022-10-20T05:34:44.014Z,1.70
2022-10-20T05:37:11.378Z,1.67
2022-10-20T05:39:39.012Z,1.60
2022-10-20T05:42:09.188Z,1.90
2022-10-20T05:44:36.527Z,2.13
2022-10-20T05:47:04.033Z,2.00
2022-10-20T05:49:31.511Z,1.80
2022-10-20T05:51:58.938Z,1.63
2022-10-20T05:54:26.308Z,1.77
2022-10-20T05:56:53.662Z,2.07
2022-10-20T05:59:21.022Z,2.00
2022-10-20T06:01:48.914Z,2.20
2022-10-20T06:04:17.947Z,2.00
2022-10-20T06:06:45.502Z,2.27
2022-10-20T06:09:13.014Z,1.83
2022-10-20T06:11:40.541Z,1.90
2022-10-20T06:14:11.274Z,2.17
2022-10-20T06:16:39.293Z,1.50
2022-10-20T06:19:07.382Z,1.50
2022-10-20T06:21:36.217Z,1.40
2022-10-20T06:24:04.945Z,2.77
2022-10-20T06:26:33.309Z,1.80
2022-10-20T06:29:04.712Z,2.07
2022-10-20T06:31:32.356Z,2.03
2022-10-20T06:34:00.034Z,1.97
2022-10-20T06:36:28.109Z,1.50
2022-10-20T06:38:59.522Z,1.63
2022-10-20T06:41:27.801Z,1.90
2022-10-20T06:43:59.159Z,1.70
2022-10-20T06:46:37.029Z,2.10
2022-10-20T06:49:06.053Z,2.17
2022-10-20T06:51:33.601Z,1.63
2022-10-20T06:54:01.296Z,2.13
2022-10-20T06:56:29.661Z,1.67
2022-10-20T06:58:58.109Z,1.87
2022-10-20T07:01:33.066Z,1.83
2022-10-20T07:04:01.775Z,2.45
2022-10-20T07:06:33.782Z,2.47
2022-10-20T07:09:01.503Z,2.40
2022-10-20T07:11:32.250Z,2.40
2022-10-20T07:13:59.995Z,1.97
2022-10-20T07:16:28.417Z,2.10
2022-10-20T07:18:57.291Z,2.00
2022-10-20T07:21:32.442Z,2.57
2022-10-20T07:24:04.238Z,2.23
2022-10-20T07:26:33.093Z,2.47
2022-10-20T07:29:01.721Z,2.25
2022-10-20T07:31:33.763Z,1.97
2022-10-20T07:34:13.382Z,2.10
2022-10-20T07:36:42.329Z,2.20
2022-10-20T07:39:11.247Z,2.03
2022-10-20T07:41:39.757Z,2.20
2022-10-20T07:44:08.201Z,2.35
2022-10-20T07:46:36.617Z,2.10
2022-10-20T07:49:31.415Z,1.80
2022-10-20T07:51:54.437Z,2.00
2022-10-20T07:54:21.900Z,2.10
2022-10-20T07:56:49.653Z,2.13
2022-10-20T07:59:17.081Z,2.63
2022-10-20T08:01:44.661Z,2.25
2022-10-20T08:04:12.267Z,2.35
2022-10-20T08:06:39.761Z,2.38
2022-10-20T08:09:07.658Z,2.30
2022-10-20T08:11:35.321Z,2.53
2022-10-20T08:14:02.767Z,2.40
2022-10-20T08:16:33.095Z,1.80
2022-10-20T08:21:41.579Z,2.67
2022-10-20T08:24:09.306Z,2.25
2022-10-20T08:26:36.687Z,2.03
2022-10-20T08:29:04.102Z,2.25
2022-10-20T08:31:31.505Z,1.98
2022-10-20T08:33:59.919Z,2.17
2022-10-20T08:36:30.307Z,1.95
2022-10-20T08:39:03.425Z,2.35
2022-10-20T08:41:55.354Z,2.53
2022-10-20T08:44:25.909Z,2.85
2022-10-20T08:46:53.284Z,2.63
2022-10-20T08:49:25.896Z,2.30
2022-10-20T08:51:53.258Z,2.15
2022-10-20T08:54:20.654Z,2.33
2022-10-20T08:56:48.129Z,2.90
2022-10-20T08:59:26.466Z,2.95
2022-10-20T09:01:54.826Z,1.95
2022-10-20T09:04:33.069Z,2.80
2022-10-20T09:07:05.882Z,2.25
2022-10-20T09:09:34.321Z,2.35
2022-10-20T09:12:06.627Z,2.80
2022-10-20T09:14:38.225Z,2.17
2022-10-20T09:17:09.168Z,2.30
2022-10-20T09:19:38.990Z,2.50
2022-10-20T09:22:07.489Z,2.42
2022-10-20T09:24:36.310Z,2.40
2022-10-20T09:27:21.855Z,2.95
2022-10-20T09:29:49.356Z,2.50
2022-10-20T09:32:45.561Z,2.45
2022-10-20T09:35:28.916Z,2.83
2022-10-20T09:38:04.414Z,2.53
2022-10-20T09:40:32.425Z,1.95
2022-10-20T09:42:59.795Z,2.08
2022-10-20T09:45:32.415Z,2.25
2022-10-20T09:48:06.344Z,2.60
2022-10-20T09:50:36.374Z,2.25
2022-10-20T09:53:05.933Z,2.97
2022-10-20T09:55:34.990Z,2.83
2022-10-20T09:58:03.598Z,1.52
2022-10-20T10:00:37.125Z,2.63
2022-10-20T10:03:21.412Z,2.53
2022-10-20T10:05:53.087Z,2.72
2022-10-20T10:08:20.274Z,2.10
2022-10-20T10:10:58.511Z,1.90
2022-10-20T10:13:27.395Z,1.73
2022-10-20T10:16:20.910Z,2.50
2022-10-20T10:19:08.623Z,2.30
2022-10-20T10:21:49.612Z,2.20
2022-10-20T10:24:30.507Z,1.58
2022-10-20T10:26:58.056Z,2.35
2022-10-20T10:29:27.148Z,2.53
2022-10-20T10:32:17.528Z,1.77
2022-10-20T10:34:52.029Z,1.88
2022-10-20T10:39:52.030Z,2.30
2022-10-20T10:42:45.129Z,2.00
2022-10-20T10:45:38.512Z,2.28
2022-10-20T10:48:24.547Z,2.70
2022-10-20T10:50:51.987Z,2.90
2022-10-20T10:53:19.386Z,2.63
2022-10-20T10:55:54.891Z,1.90
2022-10-20T10:58:25.293Z,2.58
2022-10-20T11:00:58.837Z,2.17
2022-10-20T11:03:39.852Z,2.55
2022-10-20T11:06:18.978Z,2.00
2022-10-20T11:08:55.296Z,2.33
2022-10-20T11:11:43.863Z,2.22
2022-10-20T11:14:16.954Z,2.00
2022-10-20T11:16:56.712Z,2.08
2022-10-20T11:19:27.205Z,2.25
2022-10-20T11:22:15.919Z,2.65
2022-10-20T11:24:59.307Z,2.28
2022-10-20T11:27:27.971Z,2.38
2022-10-20T11:30:05.569Z,2.65
2022-10-20T11:32:41.685Z,2.38
2022-10-20T11:35:09.033Z,2.67
2022-10-20T11:37:42.188Z,2.28
2022-10-20T11:40:12.984Z,3.22
2022-10-20T11:42:40.299Z,2.40
2022-10-20T11:45:26.769Z,2.47
2022-10-20T11:48:09.601Z,2.78
2022-10-20T11:50:37.218Z,2.38
2022-10-20T11:53:13.734Z,2.55
2022-10-20T11:55:55.569Z,2.25
2022-10-20T11:58:22.904Z,2.60
2022-10-20T12:01:02.162Z,3.00
2022-10-20T12:03:29.544Z,2.33
2022-10-20T12:05:59.911Z,2.78
2022-10-20T12:08:30.927Z,3.67
2022-10-20T12:11:10.646Z,2.35
2022-10-20T12:13:56.644Z,2.25
2022-10-20T12:16:42.507Z,2.75
2022-10-20T12:19:20.675Z,2.58
2022-10-20T12:21:58.463Z,2.63
2022-10-20T12:24:42.611Z,2.60
2022-10-20T12:27:10.077Z,2.90
2022-10-20T12:29:37.418Z,2.42
2022-10-20T12:32:26.008Z,2.67
2022-10-20T12:34:56.832Z,2.85
2022-10-20T12:37:27.160Z,2.67
2022-10-20T12:39:55.707Z,2.55
2022-10-20T12:42:24.487Z,2.85
2022-10-20T12:44:52.410Z,2.97
2022-10-20T12:47:27.830Z,2.65
2022-10-20T12:50:01.227Z,2.83
2022-10-20T12:52:32.349Z,2.60
2022-10-20T12:55:19.957Z,2.38
2022-10-20T12:57:47.966Z,2.30
2022-10-20T13:00:23.872Z,2.60
2022-10-20T13:02:55.031Z,2.17
2022-10-20T13:05:25.529Z,2.50
2022-10-20T13:07:52.835Z,2.85
2022-10-20T13:10:26.487Z,2.90
2022-10-20T13:12:54.697Z,2.95
2022-10-20T13:15:22.968Z,3.30
2022-10-20T13:17:56.749Z,2.63
2022-10-20T13:20:42.524Z,2.88
2022-10-20T13:23:12.463Z,2.80
2022-10-20T13:25:47.330Z,2.83
2022-10-20T13:28:14.827Z,3.08
2022-10-20T13:30:50.998Z,2.60
2022-10-20T13:33:34.286Z,2.55
2022-10-20T13:36:21.345Z,2.95
2022-10-20T13:38:54.902Z,3.15
2022-10-20T13:41:29.683Z,2.97
2022-10-20T13:44:11.930Z,3.00
2022-10-20T13:46:45.255Z,2.70
2022-10-20T13:49:12.586Z,2.65
2022-10-20T13:51:43.728Z,3.10
2022-10-20T13:54:18.370Z,3.40
2022-10-20T13:56:48.582Z,3.35
2022-10-20T13:59:18.751Z,3.30
2022-10-20T14:01:47.675Z,3.38
2022-10-20T14:04:24.169Z,3.70
2022-10-20T14:06:51.506Z,3.33
2022-10-20T14:09:20.060Z,3.53
2022-10-20T14:11:48.756Z,2.97
2022-10-20T14:14:23.984Z,2.92
2022-10-20T14:17:02.331Z,3.90
2022-10-20T14:19:30.869Z,3.88
2022-10-20T14:21:59.678Z,2.83
2022-10-20T14:24:30.018Z,3.08
2022-10-20T14:29:28.287Z,3.35
2022-10-20T14:31:56.087Z,3.30
2022-10-20T14:34:31.197Z,3.20
2022-10-20T14:36:59.316Z,3.40
2022-10-20T14:39:44.847Z,3.25
2022-10-20T14:42:38.708Z,3.25
2022-10-20T14:45:06.815Z,3.70
2022-10-20T14:47:38.751Z,3.50
2022-10-20T14:50:06.468Z,3.92
2022-10-20T14:52:38.854Z,4.05
2022-10-20T14:55:24.952Z,3.70
2022-10-20T14:57:52.355Z,4.15
2022-10-20T15:00:27.448Z,4.07
2022-10-20T15:02:58.869Z,3.85
2022-10-20T15:05:45.348Z,4.25
2022-10-20T15:08:22.069Z,3.53
2022-10-20T15:10:49.426Z,4.78
2022-10-20T15:13:28.775Z,3.60
2022-10-20T15:15:57.035Z,4.13
2022-10-20T15:18:25.103Z,4.03
2022-10-20T15:20:53.661Z,4.00
2022-10-20T15:23:22.601Z,3.70
2022-10-20T15:25:50.102Z,3.78
2022-10-20T15:28:36.331Z,3.90
2022-10-20T15:31:06.262Z,4.80
2022-10-20T15:33:33.675Z,4.43
2022-10-20T15:36:01.895Z,4.03
2022-10-20T15:38:29.282Z,3.90
2022-10-20T15:40:56.658Z,4.53
2022-10-20T15:43:24.064Z,4.00
2022-10-20T15:45:55.803Z,4.32
2022-10-20T15:48:27.182Z,4.90
2022-10-20T15:50:55.242Z,4.45
2022-10-20T15:53:22.622Z,4.72
2022-10-20T15:55:50.050Z,4.57
2022-10-20T15:58:17.627Z,4.88
2022-10-20T16:00:45.004Z,4.65
2022-10-20T16:03:17.562Z,4.60
2022-10-20T16:05:47.907Z,4.03
2022-10-20T16:10:47.664Z,3.90
2022-10-20T16:13:15.983Z,4.10
2022-10-20T16:15:43.348Z,4.13
2022-10-20T16:18:11.475Z,4.28
2022-10-20T16:20:38.839Z,4.20
2022-10-20T16:23:06.249Z,3.97
2022-10-20T16:25:33.667Z,4.55
2022-10-20T16:28:01.102Z,3.90
2022-10-20T16:30:28.528Z,4.10
2022-10-20T16:32:55.927Z,3.83
2022-10-20T16:35:23.372Z,3.78
2022-10-20T16:37:50.764Z,4.15
2022-10-20T16:40:18.252Z,4.03
2022-10-20T16:42:45.647Z,4.10
2022-10-20T16:45:13.166Z,3.80
2022-10-20T16:47:40.782Z,4.25
2022-10-20T16:50:08.604Z,4.32
2022-10-20T16:52:36.004Z,6.20
2022-10-20T16:55:03.343Z,4.80
2022-10-20T16:57:38.459Z,4.53
2022-10-20T17:00:07.075Z,4.15
2022-10-20T17:02:37.695Z,4.38
2022-10-20T17:05:08.330Z,3.95
2022-10-20T17:07:37.137Z,3.88
2022-10-20T17:10:04.835Z,3.72
2022-10-20T17:12:32.204Z,4.22
2022-10-20T17:14:59.602Z,4.15
2022-10-20T17:17:26.963Z,3.50
2022-10-20T17:19:54.340Z,3.40
2022-10-20T17:22:23.982Z,4.13
2022-10-20T17:24:51.374Z,4.03
2022-10-20T17:27:18.755Z,3.80
2022-10-20T17:29:46.071Z,4.05
2022-10-20T17:32:15.931Z,4.15
2022-10-20T17:34:45.476Z,4.10
2022-10-20T17:37:12.826Z,4.18
2022-10-20T17:39:40.242Z,3.70
2022-10-20T17:42:07.564Z,3.85
2022-10-20T17:44:34.942Z,4.30
2022-10-20T17:47:04.505Z,4.85
2022-10-20T17:49:31.916Z,6.03
2022-10-20T17:51:59.237Z,3.83
2022-10-20T17:54:26.614Z,7.55
2022-10-20T17:56:54.041Z,5.63
2022-10-20T17:59:21.399Z,4.85
2022-10-20T18:01:48.820Z,6.38
2022-10-20T18:04:17.131Z,4.97
2022-10-20T18:06:44.984Z,5.10
2022-10-20T18:09:16.581Z,3.85
2022-10-20T18:11:45.995Z,4.00
2022-10-20T18:14:13.330Z,4.25
2022-10-20T18:16:40.885Z,3.83
2022-10-20T18:19:09.236Z,4.05
2022-10-20T18:21:36.582Z,3.38
2022-10-20T18:24:05.708Z,3.47
2022-10-20T18:26:33.884Z,4.10
2022-10-20T18:29:02.010Z,5.65
2022-10-20T18:31:30.867Z,4.47
2022-10-20T18:34:04.135Z,4.75
2022-10-20T18:36:34.446Z,4.55
2022-10-20T18:39:01.805Z,4.47
2022-10-20T18:41:30.355Z,5.75
2022-10-20T18:44:01.579Z,5.68
2022-10-20T18:46:30.134Z,4.63
2022-10-20T18:48:58.115Z,5.05
2022-10-20T18:51:25.462Z,7.13
2022-10-20T18:53:54.840Z,5.15
2022-10-20T18:56:22.972Z,4.28
2022-10-20T18:58:50.829Z,4.63
2022-10-20T19:01:19.148Z,6.72
2022-10-20T19:03:47.609Z,4.72
2022-10-20T19:06:22.474Z,4.55
2022-10-20T19:08:54.341Z,4.50
2022-10-20T19:11:22.956Z,7.20
2022-10-20T19:13:50.367Z,4.88
2022-10-20T19:16:19.150Z,4.30
2022-10-20T19:18:47.590Z,4.03
2022-10-20T19:21:15.451Z,4.38
2022-10-20T19:23:44.915Z,3.63
2022-10-20T19:26:20.136Z,3.88
2022-10-20T19:28:48.995Z,3.95
2022-10-20T19:31:21.003Z,4.10
2022-10-20T19:33:49.882Z,3.70
2022-10-20T19:36:17.370Z,3.45
2022-10-20T19:38:44.770Z,3.75
2022-10-20T19:41:12.397Z,3.92
2022-10-20T19:43:40.271Z,3.95
2022-10-20T19:46:09.177Z,3.35
2022-10-20T19:48:36.737Z,3.10
2022-10-20T19:51:04.597Z,3.22
2022-10-20T19:53:31.953Z,3.47
2022-10-20T19:56:02.133Z,3.20
2022-10-20T19:58:29.515Z,2.78
2022-10-20T20:00:58.070Z,3.40
2022-10-20T20:03:25.694Z,3.65
2022-10-20T20:06:03.175Z,3.00
2022-10-20T20:08:30.882Z,3.10
2022-10-20T20:10:58.818Z,2.78
2022-10-20T20:13:26.545Z,2.83
2022-10-20T20:15:53.988Z,3.38
2022-10-20T20:18:21.608Z,3.47
2022-10-20T20:20:49.334Z,2.88
2022-10-20T20:23:20.048Z,3.13
2022-10-20T20:25:53.189Z,3.47
2022-10-20T20:28:20.563Z,3.28
2022-10-20T20:31:04.109Z,2.97
2022-10-20T20:33:32.102Z,3.10
2022-10-20T20:36:00.332Z,3.38
2022-10-20T20:38:30.963Z,3.60
2022-10-20T20:41:02.156Z,3.63
2022-10-20T20:43:29.807Z,3.30
2022-10-20T20:45:57.236Z,4.18
2022-10-20T20:48:24.618Z,3.63
2022-10-20T20:50:55.668Z,3.60
2022-10-20T20:53:23.292Z,3.35
2022-10-20T20:55:54.888Z,3.40
2022-10-20T20:58:22.332Z,3.30
2022-10-20T21:00:49.824Z,3.25
2022-10-20T21:03:17.379Z,3.80
2022-10-20T21:05:44.779Z,4.00
2022-10-20T21:08:12.158Z,4.47
2022-10-20T21:10:39.488Z,3.72
2022-10-20T21:13:06.855Z,3.90
2022-10-20T21:15:34.191Z,3.00
2022-10-20T21:18:01.543Z,3.72
2022-10-20T21:20:29.312Z,3.47
2022-10-20T21:22:56.704Z,3.53
2022-10-20T21:25:24.164Z,3.30
2022-10-20T21:27:51.467Z,3.58
2022-10-20T21:30:18.934Z,3.97
2022-10-20T21:32:46.374Z,3.63
2022-10-20T21:35:13.721Z,3.58
2022-10-20T21:37:41.069Z,3.80
2022-10-20T21:40:08.624Z,3.42
2022-10-20T21:42:36.154Z,3.45
2022-10-20T21:45:03.763Z,3.50
2022-10-20T21:47:31.514Z,4.55
2022-10-20T21:49:58.900Z,4.47
2022-10-20T21:52:26.277Z,4.68
2022-10-20T21:54:53.593Z,4.10
2022-10-20T21:57:21.573Z,4.05
2022-10-20T21:59:50.608Z,3.60
2022-10-20T22:02:17.973Z,4.45
2022-10-20T22:04:45.395Z,4.15
2022-10-20T22:07:12.787Z,3.78
2022-10-20T22:09:40.232Z,3.40
2022-10-20T22:12:07.657Z,3.28
2022-10-20T22:14:35.094Z,4.07
2022-10-20T22:17:02.554Z,3.47
2022-10-20T22:19:29.912Z,3.53
2022-10-20T22:24:24.683Z,3.60
2022-10-20T22:26:52.908Z,3.67
2022-10-20T22:29:21.407Z,3.38
2022-10-20T22:31:48.849Z,3.05
2022-10-20T22:34:16.282Z,3.78
2022-10-20T22:36:44.605Z,2.80
2022-10-20T22:41:40.770Z,3.70
2022-10-20T22:44:08.486Z,3.55
2022-10-20T22:46:35.885Z,4.43
2022-10-20T22:49:03.372Z,3.47
2022-10-20T22:51:30.735Z,3.10
2022-10-20T22:53:58.179Z,3.60
2022-10-20T22:56:25.587Z,2.83
2022-10-20T22:58:53.840Z,3.60
2022-10-20T23:01:22.424Z,3.47
2022-10-20T23:03:50.290Z,3.55
2022-10-20T23:06:22.488Z,3.53
2022-10-20T23:08:51.266Z,3.92
2022-10-20T23:11:18.896Z,3.47
2022-10-20T23:13:47.414Z,3.30
2022-10-20T23:16:15.307Z,2.58
2022-10-20T23:18:42.695Z,2.80
2022-10-20T23:21:10.116Z,2.90
2022-10-20T23:23:38.441Z,3.22
2022-10-20T23:26:06.844Z,3.22
2022-10-20T23:28:35.050Z,3.13
2022-10-20T23:31:11.340Z,3.28
2022-10-20T23:33:39.449Z,3.47
2022-10-20T23:36:07.056Z,3.08
2022-10-20T23:38:37.526Z,3.53
2022-10-20T23:41:05.287Z,3.30
2022-10-20T23:43:33.150Z,3.22
2022-10-20T23:46:00.929Z,2.95
2022-10-20T23:48:28.367Z,3.05
2022-10-20T23:50:55.708Z,2.95
2022-10-20T23:53:23.047Z,3.72
2022-10-20T23:55:50.467Z,3.20
2022-10-20T23:58:22.073Z,3.28
